Time;durP1;ratioP1;P1;durP2;ratioP2;P2;SDS_P1;SDS_P2;PMS_P1;PMS_P2;Temp;Humidity;BMP_temperature;BMP_pressure;BME280_temperature;BME280_humidity;BME280_pressure;Samples;Min_cycle;Max_cycle;Signal;HPM_P1;HPM_P2
2023/07/26 00:00:46;;;;;;;;;;;16.10;99.90;;;;;;4972392;28;19980;-68
2023/07/26 00:03:14;;;;;;;;;;;16.00;99.90;;;;;;4972606;28;20020;-68
2023/07/26 00:05:42;;;;;;;;;;;16.00;99.90;;;;;;4983037;28;19930;-67
2023/07/26 00:08:10;;;;;;;;;;;16.00;99.90;;;;;;4976448;28;20385;-68
2023/07/26 00:10:37;;;;;;;;;;;16.00;99.90;;;;;;4971931;28;19965;-68
2023/07/26 00:13:05;;;;;;;;;;;16.10;99.90;;;;;;4972396;28;20314;-67
2023/07/26 00:15:33;;;;;;;;;;;16.00;99.90;;;;;;4972178;28;19925;-67
2023/07/26 00:18:02;;;;;;;;;;;16.00;99.90;;;;;;4972681;28;20452;-68
2023/07/26 00:20:30;;;;;;;;;;;16.00;99.90;;;;;;4972245;28;19980;-68
2023/07/26 00:22:58;;;;;;;;;;;16.00;99.90;;;;;;4972418;28;19926;-68
2023/07/26 00:25:25;;;;;;;;;;;16.00;99.90;;;;;;4972384;28;19969;-67
2023/07/26 00:27:53;;;;;;;;;;;16.00;99.90;;;;;;4972542;28;19928;-68
2023/07/26 00:30:21;;;;;;;;;;;16.00;99.90;;;;;;4972053;28;19929;-69
2023/07/26 00:32:49;;;;;;;;;;;16.00;99.90;;;;;;4972144;28;19977;-68
2023/07/26 00:35:21;;;;;;;;;;;16.00;99.90;;;;;;4987357;28;19969;-68
2023/07/26 00:37:49;;;;;;;;;;;16.00;99.90;;;;;;4972140;28;20292;-68
2023/07/26 00:40:17;;;;;;;;;;;16.00;99.90;;;;;;4972280;28;19930;-68
2023/07/26 00:42:45;;;;;;;;;;;15.90;99.90;;;;;;4971643;28;19926;-68
2023/07/26 00:45:12;;;;;;;;;;;15.90;99.90;;;;;;4972368;28;19963;-68
2023/07/26 00:47:40;;;;;;;;;;;15.90;99.90;;;;;;4972279;28;19937;-67
2023/07/26 00:50:09;;;;;;;;;;;15.90;99.90;;;;;;4971819;28;19922;-67
2023/07/26 00:52:38;;;;;;;;;;;15.80;99.90;;;;;;4972172;28;19926;-67
2023/07/26 00:55:07;;;;;;;;;;;15.80;99.90;;;;;;4975261;28;19922;-68
2023/07/26 00:57:35;;;;;;;;;;;15.80;99.90;;;;;;4975597;28;19926;-69
2023/07/26 01:00:04;;;;;;;;;;;15.90;99.90;;;;;;4975373;28;19930;-69
2023/07/26 01:02:31;;;;;;;;;;;15.80;99.90;;;;;;4975697;28;19922;-69
2023/07/26 01:04:59;;;;;;;;;;;15.80;99.90;;;;;;4971272;28;19921;-69
2023/07/26 01:07:32;;;;;;;;;;;15.80;99.90;;;;;;4975883;28;19926;-67
2023/07/26 01:10:03;;;;;;;;;;;15.80;99.90;;;;;;4975462;28;19943;-66
2023/07/26 01:12:34;;;;;;;;;;;15.80;99.90;;;;;;4975521;28;19945;-69
2023/07/26 01:15:04;;;;;;;;;;;15.70;99.90;;;;;;4975834;28;19937;-69
2023/07/26 01:17:32;;;;;;;;;;;15.70;99.90;;;;;;4975323;28;19926;-69
2023/07/26 01:20:00;;;;;;;;;;;15.70;99.90;;;;;;4975458;28;20413;-69
2023/07/26 01:22:29;;;;;;;;;;;15.60;99.90;;;;;;4975401;28;19922;-69
2023/07/26 01:24:57;;;;;;;;;;;15.60;99.90;;;;;;4975808;28;20296;-68
2023/07/26 01:27:29;;;;;;;;;;;15.60;99.90;;;;;;4975236;28;20431;-68
2023/07/26 01:29:57;;;;;;;;;;;15.50;99.90;;;;;;4975138;28;19929;-68
2023/07/26 01:32:25;;;;;;;;;;;15.40;99.90;;;;;;4975305;28;19922;-68
2023/07/26 01:34:54;;;;;;;;;;;15.40;99.90;;;;;;4985756;28;19976;-68
2023/07/26 01:37:23;;;;;;;;;;;15.40;99.90;;;;;;4987540;28;20273;-66
2023/07/26 01:39:52;;;;;;;;;;;15.40;99.90;;;;;;4974984;28;19930;-68
2023/07/26 01:42:20;;;;;;;;;;;15.40;99.90;;;;;;4975193;28;19929;-68
2023/07/26 01:44:48;;;;;;;;;;;15.30;99.90;;;;;;4974905;28;19929;-68
2023/07/26 01:47:15;;;;;;;;;;;15.30;99.90;;;;;;4975016;28;19969;-68
2023/07/26 01:49:43;;;;;;;;;;;15.20;99.90;;;;;;4974520;28;19976;-69
2023/07/26 01:52:11;;;;;;;;;;;15.20;99.90;;;;;;4974759;28;19922;-69
2023/07/26 01:54:39;;;;;;;;;;;15.10;99.90;;;;;;4974815;28;20021;-68
2023/07/26 01:57:08;;;;;;;;;;;15.10;99.90;;;;;;4975044;28;19945;-69
2023/07/26 01:59:36;;;;;;;;;;;15.00;99.90;;;;;;4974432;28;19922;-68
2023/07/26 02:02:04;;;;;;;;;;;14.90;99.90;;;;;;4974684;28;19973;-69
2023/07/26 02:04:32;;;;;;;;;;;14.80;99.90;;;;;;4990307;28;20004;-69
2023/07/26 02:07:00;;;;;;;;;;;14.80;99.90;;;;;;4980732;28;19928;-68
2023/07/26 02:09:27;;;;;;;;;;;14.80;99.90;;;;;;4974572;28;19926;-68
2023/07/26 02:11:55;;;;;;;;;;;14.70;99.90;;;;;;4974628;28;20297;-69
2023/07/26 02:14:24;;;;;;;;;;;14.70;99.90;;;;;;4974896;28;19944;-68
2023/07/26 02:16:52;;;;;;;;;;;14.60;99.90;;;;;;4974313;28;19925;-68
2023/07/26 02:19:20;;;;;;;;;;;14.50;99.90;;;;;;4974551;28;20313;-68
2023/07/26 02:21:48;;;;;;;;;;;14.40;99.90;;;;;;4974399;28;19938;-68
2023/07/26 02:24:15;;;;;;;;;;;14.40;99.90;;;;;;4974006;28;19922;-67
2023/07/26 02:26:43;;;;;;;;;;;14.40;99.90;;;;;;4973999;28;19929;-68
2023/07/26 02:29:11;;;;;;;;;;;14.20;99.90;;;;;;4974326;28;19922;-68
2023/07/26 02:31:40;;;;;;;;;;;14.20;99.90;;;;;;4973840;28;19952;-68
2023/07/26 02:34:08;;;;;;;;;;;14.20;99.90;;;;;;4986841;28;20254;-68
2023/07/26 02:36:36;;;;;;;;;;;14.20;99.90;;;;;;4985214;28;20404;-66
2023/07/26 02:39:04;;;;;;;;;;;14.10;99.90;;;;;;4973861;28;19922;-68
2023/07/26 02:41:32;;;;;;;;;;;14.00;99.90;;;;;;4974328;28;19929;-70
2023/07/26 02:44:00;;;;;;;;;;;14.10;99.90;;;;;;4973694;28;19930;-67
2023/07/26 02:46:28;;;;;;;;;;;14.10;99.90;;;;;;4973958;28;19922;-66
2023/07/26 02:48:57;;;;;;;;;;;14.00;99.90;;;;;;4973441;28;19922;-66
2023/07/26 02:51:25;;;;;;;;;;;14.00;99.90;;;;;;4973962;28;19922;-65
2023/07/26 02:53:52;;;;;;;;;;;14.00;99.90;;;;;;4973626;28;19922;-66
2023/07/26 02:56:20;;;;;;;;;;;14.10;99.90;;;;;;4973313;28;19922;-69
2023/07/26 02:58:48;;;;;;;;;;;14.10;99.90;;;;;;4973538;28;20356;-68
2023/07/26 03:01:15;;;;;;;;;;;14.00;99.90;;;;;;4973655;28;19938;-68
2023/07/26 03:03:43;;;;;;;;;;;14.00;99.90;;;;;;4974115;28;20344;-67
2023/07/26 03:06:12;;;;;;;;;;;14.00;99.90;;;;;;4973416;28;19926;-67
2023/07/26 03:08:40;;;;;;;;;;;14.00;99.90;;;;;;4973230;28;20385;-66
2023/07/26 03:11:08;;;;;;;;;;;14.10;99.90;;;;;;4974601;28;20308;-67
2023/07/26 03:13:36;;;;;;;;;;;14.10;99.90;;;;;;4973612;28;19977;-67
2023/07/26 03:16:03;;;;;;;;;;;14.10;99.90;;;;;;4972754;28;20362;-68
2023/07/26 03:18:31;;;;;;;;;;;14.20;99.90;;;;;;4973251;28;19988;-67
2023/07/26 03:20:59;;;;;;;;;;;14.20;99.90;;;;;;4973032;28;20424;-67
2023/07/26 03:23:28;;;;;;;;;;;14.20;99.90;;;;;;4973383;28;19922;-67
2023/07/26 03:25:56;;;;;;;;;;;14.20;99.90;;;;;;4972932;28;19922;-67
2023/07/26 03:28:24;;;;;;;;;;;14.30;99.90;;;;;;4973381;28;19922;-67
2023/07/26 03:30:51;;;;;;;;;;;14.30;99.90;;;;;;4972414;28;19925;-65
2023/07/26 03:33:19;;;;;;;;;;;14.30;99.90;;;;;;4973275;28;19922;-68
2023/07/26 03:35:47;;;;;;;;;;;14.40;99.90;;;;;;4988755;28;19929;-67
2023/07/26 03:38:15;;;;;;;;;;;14.40;99.90;;;;;;4973221;28;19977;-67
2023/07/26 03:40:44;;;;;;;;;;;14.30;99.90;;;;;;4972571;28;19926;-67
2023/07/26 03:43:12;;;;;;;;;;;14.40;99.90;;;;;;4973177;28;19984;-67
2023/07/26 03:45:40;;;;;;;;;;;14.40;99.90;;;;;;4972846;28;19922;-67
2023/07/26 03:48:08;;;;;;;;;;;14.30;99.90;;;;;;4972686;28;19922;-67
2023/07/26 03:50:36;;;;;;;;;;;14.40;99.90;;;;;;4973229;28;19926;-67
2023/07/26 03:53:03;;;;;;;;;;;14.40;99.90;;;;;;4972710;28;19933;-68
2023/07/26 03:55:31;;;;;;;;;;;14.40;99.90;;;;;;4972641;28;20388;-67
2023/07/26 03:58:00;;;;;;;;;;;14.50;99.90;;;;;;4972756;28;20385;-67
2023/07/26 04:00:28;;;;;;;;;;;14.60;99.90;;;;;;4972551;28;19929;-69
2023/07/26 04:02:56;;;;;;;;;;;14.60;99.90;;;;;;4973707;28;19933;-68
2023/07/26 04:05:24;;;;;;;;;;;14.60;99.90;;;;;;4986787;28;19922;-67
2023/07/26 04:07:52;;;;;;;;;;;14.60;99.90;;;;;;4972463;28;19926;-67
2023/07/26 04:10:20;;;;;;;;;;;14.60;99.90;;;;;;4972484;28;19986;-67
2023/07/26 04:12:48;;;;;;;;;;;14.60;99.90;;;;;;4972145;28;19926;-67
2023/07/26 04:15:17;;;;;;;;;;;14.50;99.90;;;;;;4973187;28;20388;-67
2023/07/26 04:17:45;;;;;;;;;;;14.50;99.90;;;;;;4972462;28;19926;-67
2023/07/26 04:20:13;;;;;;;;;;;14.50;99.90;;;;;;4972045;28;20385;-67
2023/07/26 04:22:40;;;;;;;;;;;14.50;99.90;;;;;;4975256;28;20550;-67
2023/07/26 04:25:08;;;;;;;;;;;14.50;99.90;;;;;;4976644;28;19929;-68
2023/07/26 04:27:36;;;;;;;;;;;14.50;99.90;;;;;;4977653;28;20401;-68
2023/07/26 04:30:04;;;;;;;;;;;14.50;99.90;;;;;;4980331;28;19928;-66
2023/07/26 04:32:33;;;;;;;;;;;14.40;99.90;;;;;;4981702;28;19925;-67
2023/07/26 04:35:01;;;;;;;;;;;14.40;99.90;;;;;;4978752;28;19945;-67
2023/07/26 04:37:29;;;;;;;;;;;14.40;99.90;;;;;;4981089;28;20442;-68
2023/07/26 04:39:57;;;;;;;;;;;14.40;99.90;;;;;;4981700;28;20418;-67
2023/07/26 04:42:24;;;;;;;;;;;14.40;99.90;;;;;;4979482;28;19926;-67
2023/07/26 04:44:52;;;;;;;;;;;14.40;99.90;;;;;;4981560;28;19949;-67
2023/07/26 04:47:22;;;;;;;;;;;14.40;99.90;;;;;;4981749;28;19929;-67
2023/07/26 04:49:51;;;;;;;;;;;14.40;99.90;;;;;;5027309;22;19940;-76
2023/07/26 04:52:19;;;;;;;;;;;14.40;99.90;;;;;;5016811;28;19932;-75
2023/07/26 04:54:47;;;;;;;;;;;14.40;99.90;;;;;;5023603;28;20416;-75
2023/07/26 04:57:15;;;;;;;;;;;14.40;99.90;;;;;;5023042;28;20403;-75
2023/07/26 04:59:43;;;;;;;;;;;14.40;99.90;;;;;;5023077;28;20396;-76
2023/07/26 05:02:10;;;;;;;;;;;14.40;99.90;;;;;;5020370;28;20328;-74
2023/07/26 05:04:38;;;;;;;;;;;14.40;99.90;;;;;;5021672;28;19929;-74
2023/07/26 05:07:07;;;;;;;;;;;14.40;99.90;;;;;;5020994;28;19929;-74
2023/07/26 05:09:35;;;;;;;;;;;14.50;99.90;;;;;;5022794;28;19928;-77
2023/07/26 05:12:03;;;;;;;;;;;14.50;99.90;;;;;;5017947;28;20509;-79
2023/07/26 05:14:31;;;;;;;;;;;14.60;99.90;;;;;;5023787;28;19920;-77
2023/07/26 05:16:59;;;;;;;;;;;14.70;99.90;;;;;;5022554;28;19940;-76
2023/07/26 05:19:27;;;;;;;;;;;14.70;99.90;;;;;;5022610;28;20089;-75
2023/07/26 05:21:54;;;;;;;;;;;14.80;99.90;;;;;;5017909;28;20388;-77
2023/07/26 05:24:24;;;;;;;;;;;14.80;99.90;;;;;;5022265;28;19929;-76
2023/07/26 05:26:52;;;;;;;;;;;14.80;99.90;;;;;;5022961;28;19928;-76
2023/07/26 05:29:19;;;;;;;;;;;14.80;99.90;;;;;;5022670;28;19925;-75
2023/07/26 05:31:47;;;;;;;;;;;14.80;99.90;;;;;;5020209;28;19924;-75
2023/07/26 05:34:15;;;;;;;;;;;14.80;99.90;;;;;;5022574;28;19935;-74
2023/07/26 05:36:43;;;;;;;;;;;14.80;99.90;;;;;;5021663;28;19929;-79
2023/07/26 05:39:12;;;;;;;;;;;14.80;99.90;;;;;;5021198;28;19933;-74
2023/07/26 05:41:41;;;;;;;;;;;14.90;99.90;;;;;;5020073;28;19931;-74
2023/07/26 05:44:09;;;;;;;;;;;14.90;99.90;;;;;;5022547;28;19929;-75
2023/07/26 05:46:37;;;;;;;;;;;14.90;99.90;;;;;;5021985;28;19929;-75
2023/07/26 05:49:05;;;;;;;;;;;14.90;99.90;;;;;;5021603;28;19920;-78
2023/07/26 05:51:33;;;;;;;;;;;15.00;99.90;;;;;;5017644;28;19944;-77
2023/07/26 05:54:01;;;;;;;;;;;14.90;99.90;;;;;;5019172;28;20008;-77
2023/07/26 05:56:29;;;;;;;;;;;14.90;99.90;;;;;;5022595;28;20343;-75
2023/07/26 05:58:58;;;;;;;;;;;14.80;99.90;;;;;;5022565;28;20293;-74
2023/07/26 06:01:26;;;;;;;;;;;14.80;99.90;;;;;;5019962;28;20388;-79
2023/07/26 06:03:54;;;;;;;;;;;14.80;99.90;;;;;;5019405;28;19932;-76
2023/07/26 06:06:22;;;;;;;;;;;14.80;99.90;;;;;;5022500;28;19928;-76
2023/07/26 06:08:50;;;;;;;;;;;14.80;99.90;;;;;;5021406;28;19994;-75
2023/07/26 06:11:19;;;;;;;;;;;14.80;99.90;;;;;;5018686;28;19929;-77
2023/07/26 06:13:46;;;;;;;;;;;14.70;99.90;;;;;;5021366;28;19929;-76
2023/07/26 06:16:16;;;;;;;;;;;14.80;99.90;;;;;;5021253;28;19933;-74
2023/07/26 06:18:44;;;;;;;;;;;14.70;99.90;;;;;;5021303;28;21042;-74
2023/07/26 06:21:11;;;;;;;;;;;14.80;99.90;;;;;;5019372;28;19929;-75
2023/07/26 06:23:39;;;;;;;;;;;14.80;99.90;;;;;;5020291;28;19935;-76
2023/07/26 06:26:07;;;;;;;;;;;14.80;99.90;;;;;;5021258;28;19940;-76
2023/07/26 06:28:35;;;;;;;;;;;14.80;99.90;;;;;;5021178;28;19931;-76
2023/07/26 06:31:03;;;;;;;;;;;14.80;99.90;;;;;;5012870;28;19933;-77
2023/07/26 06:33:32;;;;;;;;;;;14.90;99.90;;;;;;5011136;28;19921;-75
2023/07/26 06:36:00;;;;;;;;;;;14.90;99.90;;;;;;5020733;28;19929;-76
2023/07/26 06:38:27;;;;;;;;;;;15.00;99.90;;;;;;5020331;28;20524;-74
2023/07/26 06:40:55;;;;;;;;;;;15.10;99.90;;;;;;5019630;28;19983;-74
2023/07/26 06:43:23;;;;;;;;;;;15.10;99.90;;;;;;5018293;28;19940;-78
2023/07/26 06:45:52;;;;;;;;;;;15.20;99.90;;;;;;5020119;28;19928;-78
2023/07/26 06:48:20;;;;;;;;;;;15.20;99.90;;;;;;5021623;28;19929;-75
2023/07/26 06:50:49;;;;;;;;;;;15.40;99.90;;;;;;5018599;28;20596;-74
2023/07/26 06:53:17;;;;;;;;;;;15.50;99.90;;;;;;5018899;28;19936;-76
2023/07/26 06:55:45;;;;;;;;;;;15.60;99.90;;;;;;5021140;28;19936;-74
2023/07/26 06:58:12;;;;;;;;;;;15.60;99.90;;;;;;5018894;28;19929;-76
2023/07/26 07:00:40;;;;;;;;;;;15.60;99.90;;;;;;5018373;28;19924;-74
2023/07/26 07:03:08;;;;;;;;;;;15.70;99.90;;;;;;5019675;28;20011;-74
2023/07/26 07:05:36;;;;;;;;;;;15.90;99.90;;;;;;5020726;28;20399;-75
2023/07/26 07:08:05;;;;;;;;;;;16.00;99.90;;;;;;5017148;28;19921;-75
2023/07/26 07:10:33;;;;;;;;;;;16.10;99.90;;;;;;5017001;28;20411;-77
2023/07/26 07:13:01;;;;;;;;;;;16.20;99.90;;;;;;5018870;28;19935;-75
2023/07/26 07:15:29;;;;;;;;;;;16.30;99.90;;;;;;5020570;28;19928;-76
2023/07/26 07:17:57;;;;;;;;;;;16.40;99.90;;;;;;5020585;28;19979;-74
2023/07/26 07:20:42;;;;;;;;;;;16.60;99.90;;;;;;5018010;28;19929;-73
2023/07/26 07:23:11;;;;;;;;;;;16.50;99.90;;;;;;5017895;28;20079;-73
2023/07/26 07:25:39;;;;;;;;;;;16.50;99.90;;;;;;5019937;28;20502;-73
2023/07/26 07:28:07;;;;;;;;;;;16.50;99.90;;;;;;5020080;28;19929;-73
2023/07/26 07:30:35;;;;;;;;;;;16.50;99.90;;;;;;5016733;28;19931;-73
2023/07/26 07:33:03;;;;;;;;;;;16.50;99.90;;;;;;5019709;28;19921;-73
2023/07/26 07:35:31;;;;;;;;;;;16.50;99.90;;;;;;5019414;28;20023;-73
2023/07/26 07:37:58;;;;;;;;;;;16.50;99.90;;;;;;5019373;28;19920;-73
2023/07/26 07:40:28;;;;;;;;;;;16.60;99.90;;;;;;5019089;28;20284;-74
2023/07/26 07:42:55;;;;;;;;;;;16.70;99.90;;;;;;5019685;28;20370;-75
2023/07/26 07:45:23;;;;;;;;;;;16.90;99.90;;;;;;5021002;28;20491;-75
2023/07/26 07:47:51;;;;;;;;;;;17.00;99.90;;;;;;5015089;28;19943;-75
2023/07/26 07:50:19;;;;;;;;;;;17.00;99.90;;;;;;5015269;28;19929;-75
2023/07/26 07:52:49;;;;;;;;;;;17.10;99.90;;;;;;5015857;28;19939;-75
2023/07/26 07:55:17;;;;;;;;;;;17.20;99.90;;;;;;5017190;28;19962;-73
2023/07/26 07:57:46;;;;;;;;;;;17.40;99.90;;;;;;5017055;28;19936;-73
2023/07/26 08:00:14;;;;;;;;;;;17.50;99.90;;;;;;5015002;28;21084;-74
2023/07/26 08:02:42;;;;;;;;;;;17.60;99.90;;;;;;5015598;28;20705;-73
2023/07/26 08:05:10;;;;;;;;;;;17.70;99.90;;;;;;5018254;28;19983;-73
2023/07/26 08:07:38;;;;;;;;;;;17.70;99.90;;;;;;5015892;28;19929;-74
2023/07/26 08:10:06;;;;;;;;;;;17.80;99.90;;;;;;5016250;28;20024;-74
2023/07/26 08:12:34;;;;;;;;;;;17.80;99.90;;;;;;5016306;28;19925;-74
2023/07/26 08:15:03;;;;;;;;;;;17.80;99.90;;;;;;5015879;28;19921;-73
2023/07/26 08:17:31;;;;;;;;;;;17.80;99.90;;;;;;5017854;28;19940;-75
2023/07/26 08:19:59;;;;;;;;;;;17.80;99.90;;;;;;5019144;28;19925;-73
2023/07/26 08:22:28;;;;;;;;;;;17.90;99.90;;;;;;5009813;28;20288;-75
2023/07/26 08:24:56;;;;;;;;;;;17.90;99.90;;;;;;5017976;28;19971;-74
2023/07/26 08:27:24;;;;;;;;;;;17.90;99.90;;;;;;5015734;28;19929;-74
2023/07/26 08:29:52;;;;;;;;;;;17.90;99.90;;;;;;5018268;28;19929;-73
2023/07/26 08:32:21;;;;;;;;;;;18.00;99.90;;;;;;5014977;28;19951;-72
2023/07/26 08:34:49;;;;;;;;;;;18.00;99.90;;;;;;5015436;28;19956;-75
2023/07/26 08:37:18;;;;;;;;;;;18.00;99.90;;;;;;5017741;28;19929;-73
2023/07/26 08:39:46;;;;;;;;;;;18.10;99.90;;;;;;5017389;28;19929;-73
2023/07/26 08:42:14;;;;;;;;;;;18.10;99.90;;;;;;5015654;28;19929;-73
2023/07/26 08:44:42;;;;;;;;;;;18.20;99.90;;;;;;5017401;28;20616;-73
2023/07/26 08:47:11;;;;;;;;;;;18.40;99.90;;;;;;5018740;28;19929;-74
2023/07/26 08:49:40;;;;;;;;;;;18.60;99.90;;;;;;5016672;28;20665;-73
2023/07/26 08:52:08;;;;;;;;;;;18.90;99.90;;;;;;5015743;28;19990;-72
2023/07/26 08:54:36;;;;;;;;;;;19.00;99.90;;;;;;5016671;28;19922;-74
2023/07/26 08:57:04;;;;;;;;;;;19.00;99.90;;;;;;5016500;28;19937;-73
2023/07/26 08:59:32;;;;;;;;;;;19.20;99.90;;;;;;5016463;28;19932;-74
2023/07/26 09:02:01;;;;;;;;;;;19.20;99.90;;;;;;5016502;28;19921;-73
2023/07/26 09:04:35;;;;;;;;;;;19.10;99.90;;;;;;5017524;28;19961;-72
2023/07/26 09:07:05;;;;;;;;;;;18.90;99.90;;;;;;5017435;28;20323;-75
2023/07/26 09:09:33;;;;;;;;;;;18.90;99.90;;;;;;5017353;28;19921;-72
2023/07/26 09:12:02;;;;;;;;;;;18.70;99.90;;;;;;5017090;28;19921;-74
2023/07/26 09:14:31;;;;;;;;;;;18.70;99.90;;;;;;5019415;28;20008;-75
2023/07/26 09:17:00;;;;;;;;;;;18.70;99.90;;;;;;5022175;28;19921;-72
2023/07/26 09:19:29;;;;;;;;;;;18.70;99.90;;;;;;5020816;28;20502;-76
2023/07/26 09:21:57;;;;;;;;;;;18.60;99.90;;;;;;5019718;28;19937;-73
2023/07/26 09:24:33;;;;;;;;;;;18.50;99.90;;;;;;5020751;28;19929;-72
2023/07/26 09:27:04;;;;;;;;;;;18.60;99.90;;;;;;5022702;28;20026;-74
2023/07/26 09:29:32;;;;;;;;;;;18.70;99.90;;;;;;5019657;28;19924;-72
2023/07/26 09:32:00;;;;;;;;;;;18.90;99.90;;;;;;5020512;28;19925;-75
2023/07/26 09:34:29;;;;;;;;;;;19.00;99.90;;;;;;5021611;28;19925;-77
2023/07/26 09:36:58;;;;;;;;;;;19.30;99.90;;;;;;5021424;28;20004;-72
2023/07/26 09:39:26;;;;;;;;;;;19.40;99.90;;;;;;5020458;28;19937;-75
2023/07/26 09:42:05;;;;;;;;;;;19.50;99.90;;;;;;5020220;28;19929;-73
2023/07/26 09:44:34;;;;;;;;;;;19.70;99.90;;;;;;5021180;28;19928;-75
2023/07/26 09:47:02;;;;;;;;;;;19.60;99.90;;;;;;5021387;28;19921;-73
2023/07/26 09:49:30;;;;;;;;;;;19.60;99.90;;;;;;5021435;28;20012;-72
2023/07/26 09:51:59;;;;;;;;;;;19.70;99.90;;;;;;5019731;28;19921;-73
2023/07/26 09:54:31;;;;;;;;;;;19.70;99.90;;;;;;5020074;28;19925;-72
2023/07/26 09:57:04;;;;;;;;;;;19.80;99.90;;;;;;5019808;28;20523;-73
2023/07/26 09:59:34;;;;;;;;;;;20.00;99.90;;;;;;5001438;28;19932;-71
2023/07/26 10:02:03;;;;;;;;;;;20.50;99.90;;;;;;5017344;28;19925;-74
2023/07/26 10:04:40;;;;;;;;;;;21.10;99.90;;;;;;5018373;28;20315;-73
2023/07/26 10:07:09;;;;;;;;;;;21.20;99.90;;;;;;5020992;28;19929;-74
2023/07/26 10:09:40;;;;;;;;;;;21.20;99.90;;;;;;5019334;28;19928;-73
2023/07/26 10:12:10;;;;;;;;;;;20.80;99.90;;;;;;5019815;28;19925;-73
2023/07/26 10:14:39;;;;;;;;;;;20.50;99.90;;;;;;5020706;28;19929;-72
2023/07/26 10:17:07;;;;;;;;;;;20.40;99.90;;;;;;5020435;28;19938;-73
2023/07/26 10:19:37;;;;;;;;;;;20.20;99.90;;;;;;5021184;28;19920;-72
2023/07/26 10:22:07;;;;;;;;;;;20.00;99.90;;;;;;5014915;28;19921;-74
2023/07/26 10:24:36;;;;;;;;;;;19.70;99.90;;;;;;5020310;28;19927;-74
2023/07/26 10:27:05;;;;;;;;;;;19.60;99.90;;;;;;5019216;28;19943;-72
2023/07/26 10:29:34;;;;;;;;;;;19.50;99.90;;;;;;5020045;28;19921;-73
2023/07/26 10:32:02;;;;;;;;;;;19.50;99.90;;;;;;5016145;28;19924;-73
2023/07/26 10:34:30;;;;;;;;;;;19.50;99.90;;;;;;5020519;28;20027;-73
2023/07/26 10:36:58;;;;;;;;;;;19.60;99.90;;;;;;5021341;28;19921;-73
2023/07/26 10:39:32;;;;;;;;;;;19.60;99.90;;;;;;5018804;28;19939;-73
2023/07/26 10:42:00;;;;;;;;;;;19.80;99.90;;;;;;5019723;28;19928;-73
2023/07/26 10:44:28;;;;;;;;;;;20.00;99.90;;;;;;5021175;28;20339;-72
2023/07/26 10:47:02;;;;;;;;;;;20.10;99.90;;;;;;5018126;28;19936;-74
2023/07/26 10:49:30;;;;;;;;;;;20.30;99.90;;;;;;5019017;28;19928;-70
2023/07/26 10:52:00;;;;;;;;;;;20.40;99.90;;;;;;5019186;28;20433;-71
2023/07/26 10:54:33;;;;;;;;;;;20.30;99.90;;;;;;5019524;28;20312;-70
2023/07/26 10:57:21;;;;;;;;;;;20.20;99.90;;;;;;5021231;28;19928;-71
2023/07/26 10:59:50;;;;;;;;;;;20.20;99.90;;;;;;5015525;28;20600;-71
2023/07/26 11:02:33;;;;;;;;;;;20.20;99.90;;;;;;5016891;28;19933;-71
2023/07/26 11:05:02;;;;;;;;;;;20.40;99.90;;;;;;5019404;28;19976;-72
2023/07/26 11:07:50;;;;;;;;;;;20.70;99.90;;;;;;5019851;28;20336;-72
2023/07/26 11:10:18;;;;;;;;;;;20.80;99.90;;;;;;5014367;28;19929;-76
2023/07/26 11:12:48;;;;;;;;;;;20.70;99.90;;;;;;5018111;28;19929;-71
2023/07/26 11:15:16;;;;;;;;;;;20.60;99.90;;;;;;5018195;28;20399;-71
2023/07/26 11:18:05;;;;;;;;;;;20.50;99.90;;;;;;5016591;28;20024;-71
2023/07/26 11:20:37;;;;;;;;;;;20.50;99.90;;;;;;5014566;28;20491;-71
2023/07/26 11:23:14;;;;;;;;;;;20.50;99.90;;;;;;5016626;28;20407;-74
2023/07/26 11:25:42;;;;;;;;;;;20.80;99.90;;;;;;5020159;28;19933;-74
2023/07/26 11:28:10;;;;;;;;;;;20.80;99.90;;;;;;5020461;28;19933;-74
2023/07/26 11:30:38;;;;;;;;;;;20.50;99.90;;;;;;5015722;28;19932;-73
2023/07/26 11:33:06;;;;;;;;;;;20.20;99.90;;;;;;5019195;28;20568;-72
2023/07/26 11:35:42;;;;;;;;;;;20.00;99.90;;;;;;5018470;28;19931;-73
2023/07/26 11:38:14;;;;;;;;;;;19.80;99.90;;;;;;5019497;28;19944;-71
2023/07/26 11:40:42;;;;;;;;;;;20.00;99.90;;;;;;5016261;28;19987;-74
2023/07/26 11:43:11;;;;;;;;;;;20.50;99.90;;;;;;5019476;28;19951;-73
2023/07/26 11:45:39;;;;;;;;;;;20.80;99.90;;;;;;5018306;28;19929;-72
2023/07/26 11:48:09;;;;;;;;;;;21.00;99.90;;;;;;5020347;28;19962;-72
2023/07/26 11:50:37;;;;;;;;;;;21.20;99.90;;;;;;5018005;28;20115;-71
2023/07/26 11:53:06;;;;;;;;;;;21.50;99.90;;;;;;5020056;28;19925;-72
2023/07/26 11:55:34;;;;;;;;;;;22.00;99.90;;;;;;5016918;28;19921;-72
2023/07/26 11:58:03;;;;;;;;;;;21.90;99.90;;;;;;5018434;28;19948;-73
2023/07/26 12:00:31;;;;;;;;;;;21.50;99.90;;;;;;5016947;28;19925;-71
2023/07/26 12:03:00;;;;;;;;;;;21.30;99.90;;;;;;5019779;28;19928;-72
2023/07/26 12:05:28;;;;;;;;;;;21.30;99.90;;;;;;5018870;28;19964;-70
2023/07/26 12:07:57;;;;;;;;;;;21.60;99.90;;;;;;5019355;28;20067;-74
2023/07/26 12:10:29;;;;;;;;;;;22.30;99.90;;;;;;5014564;28;20003;-72
2023/07/26 12:12:57;;;;;;;;;;;22.60;97.70;;;;;;5019526;28;19933;-73
2023/07/26 12:15:25;;;;;;;;;;;23.10;99.90;;;;;;5019600;28;20055;-71
2023/07/26 12:17:54;;;;;;;;;;;23.80;99.20;;;;;;5019932;28;19929;-74
2023/07/26 12:20:22;;;;;;;;;;;24.30;96.00;;;;;;5016496;28;19986;-72
2023/07/26 12:23:02;;;;;;;;;;;24.40;94.70;;;;;;5016663;28;19921;-74
2023/07/26 12:25:38;;;;;;;;;;;24.80;93.50;;;;;;5018817;28;19979;-72
2023/07/26 12:28:07;;;;;;;;;;;24.80;92.40;;;;;;5018460;28;21306;-73
2023/07/26 12:30:35;;;;;;;;;;;24.50;92.20;;;;;;5014945;28;19925;-74
2023/07/26 12:33:10;;;;;;;;;;;24.60;92.00;;;;;;5018733;28;19921;-73
2023/07/26 12:35:39;;;;;;;;;;;24.90;92.40;;;;;;5018820;28;19931;-74
2023/07/26 12:38:11;;;;;;;;;;;25.10;92.10;;;;;;5020503;28;19929;-75
2023/07/26 12:40:40;;;;;;;;;;;25.10;92.40;;;;;;5015508;28;19929;-75
2023/07/26 12:43:25;;;;;;;;;;;25.50;93.70;;;;;;5019220;28;19929;-74
2023/07/26 12:45:54;;;;;;;;;;;25.70;94.20;;;;;;5019769;28;20451;-74
2023/07/26 12:48:22;;;;;;;;;;;25.90;92.90;;;;;;5020924;28;19933;-73
2023/07/26 12:50:50;;;;;;;;;;;25.70;93.30;;;;;;5019104;28;20388;-71
2023/07/26 12:53:19;;;;;;;;;;;25.80;92.30;;;;;;5021801;28;19929;-74
2023/07/26 12:55:48;;;;;;;;;;;26.00;91.40;;;;;;5016384;28;19951;-74
2023/07/26 12:58:15;;;;;;;;;;;26.20;90.60;;;;;;5022137;28;20391;-70
2023/07/26 13:00:44;;;;;;;;;;;26.10;90.20;;;;;;5015521;28;20271;-72
2023/07/26 13:03:11;;;;;;;;;;;26.50;90.70;;;;;;5020038;28;19929;-73
2023/07/26 13:05:39;;;;;;;;;;;26.40;90.00;;;;;;5020780;28;19968;-72
2023/07/26 13:08:08;;;;;;;;;;;26.50;86.80;;;;;;5020155;28;19940;-72
2023/07/26 13:10:35;;;;;;;;;;;26.90;88.40;;;;;;5020061;28;19925;-73
2023/07/26 13:13:05;;;;;;;;;;;27.00;87.60;;;;;;5018029;28;19933;-74
2023/07/26 13:15:32;;;;;;;;;;;27.10;87.60;;;;;;5017117;28;19921;-71
2023/07/26 13:18:00;;;;;;;;;;;27.10;89.20;;;;;;5019593;28;19937;-73
2023/07/26 13:20:29;;;;;;;;;;;27.00;88.80;;;;;;5017806;28;19929;-72
2023/07/26 13:22:57;;;;;;;;;;;26.70;90.40;;;;;;5020431;28;20430;-73
2023/07/26 13:25:24;;;;;;;;;;;26.80;90.40;;;;;;5020930;28;19929;-73
2023/07/26 13:27:52;;;;;;;;;;;27.10;89.60;;;;;;5018348;28;19956;-72
2023/07/26 13:30:21;;;;;;;;;;;27.20;90.30;;;;;;5017902;28;19929;-72
2023/07/26 13:32:49;;;;;;;;;;;27.60;90.30;;;;;;5020268;28;20054;-74
2023/07/26 13:35:17;;;;;;;;;;;27.50;87.40;;;;;;5020604;28;19983;-72
2023/07/26 13:37:45;;;;;;;;;;;27.60;88.10;;;;;;5020063;28;19932;-76
2023/07/26 13:40:15;;;;;;;;;;;27.40;86.40;;;;;;5018395;28;19929;-72
2023/07/26 13:42:43;;;;;;;;;;;27.50;87.70;;;;;;5020352;28;19936;-72
2023/07/26 13:45:11;;;;;;;;;;;27.60;88.30;;;;;;5018867;28;19929;-72
2023/07/26 13:47:40;;;;;;;;;;;27.70;85.80;;;;;;5020959;28;19924;-74
2023/07/26 13:50:08;;;;;;;;;;;27.70;85.90;;;;;;5017191;28;19936;-72
2023/07/26 13:52:36;;;;;;;;;;;27.00;84.20;;;;;;5021676;28;20597;-75
2023/07/26 13:55:04;;;;;;;;;;;26.50;83.70;;;;;;5021073;28;19925;-74
2023/07/26 13:57:32;;;;;;;;;;;26.00;84.40;;;;;;5020683;28;19925;-72
2023/07/26 14:00:00;;;;;;;;;;;25.30;85.40;;;;;;5018937;28;20450;-74
2023/07/26 14:02:28;;;;;;;;;;;25.10;88.20;;;;;;5017298;28;20404;-73
2023/07/26 14:04:57;;;;;;;;;;;25.20;88.20;;;;;;5021390;28;19978;-74
2023/07/26 14:07:25;;;;;;;;;;;24.70;87.90;;;;;;5021540;28;20319;-75
2023/07/26 14:09:52;;;;;;;;;;;24.40;89.90;;;;;;5020684;28;20523;-74
2023/07/26 14:12:20;;;;;;;;;;;24.00;90.10;;;;;;5019700;28;20465;-74
2023/07/26 14:14:48;;;;;;;;;;;23.80;90.90;;;;;;5020295;28;19925;-70
2023/07/26 14:17:16;;;;;;;;;;;23.60;91.20;;;;;;5021974;28;20581;-73
2023/07/26 14:19:44;;;;;;;;;;;23.50;91.10;;;;;;5022264;28;19929;-74
2023/07/26 14:22:13;;;;;;;;;;;23.40;91.30;;;;;;5019421;28;19938;-73
2023/07/26 14:24:40;;;;;;;;;;;23.30;91.50;;;;;;5020885;28;19929;-74